sensor_id;sensor_type;location;lat;lon;timestamp;P1;durP1;ratioP1;P2;durP2;ratioP2
46897;SDS011;32646;50.958;6.258;2023-08-12T00:02:13;16.15;;;10.00;;
46897;SDS011;32646;50.958;6.258;2023-08-12T00:04:39;20.42;;;10.68;;
46897;SDS011;32646;50.958;6.258;2023-08-12T00:07:06;19.92;;;10.77;;
46897;SDS011;32646;50.958;6.258;2023-08-12T00:09:33;18.20;;;9.95;;
46897;SDS011;32646;50.958;6.258;2023-08-12T00:11:59;20.88;;;10.45;;
46897;SDS011;32646;50.958;6.258;2023-08-12T00:14:26;19.35;;;11.40;;
46897;SDS011;32646;50.958;6.258;2023-08-12T00:16:52;18.60;;;9.88;;
46897;SDS011;32646;50.958;6.258;2023-08-12T00:19:19;20.38;;;11.07;;
46897;SDS011;32646;50.958;6.258;2023-08-12T00:21:46;23.70;;;11.38;;
46897;SDS011;32646;50.958;6.258;2023-08-12T00:24:12;20.15;;;10.85;;
46897;SDS011;32646;50.958;6.258;2023-08-12T00:26:39;16.20;;;10.18;;
46897;SDS011;32646;50.958;6.258;2023-08-12T00:29:05;21.83;;;10.85;;
46897;SDS011;32646;50.958;6.258;2023-08-12T00:31:32;20.25;;;11.40;;
46897;SDS011;32646;50.958;6.258;2023-08-12T00:33:59;19.60;;;11.25;;
46897;SDS011;32646;50.958;6.258;2023-08-12T00:36:26;20.00;;;11.40;;
46897;SDS011;32646;50.958;6.258;2023-08-12T00:38:52;25.40;;;10.85;;
46897;SDS011;32646;50.958;6.258;2023-08-12T00:41:19;20.05;;;10.20;;
46897;SDS011;32646;50.958;6.258;2023-08-12T00:43:45;21.17;;;11.27;;
46897;SDS011;32646;50.958;6.258;2023-08-12T00:46:12;24.42;;;11.32;;
46897;SDS011;32646;50.958;6.258;2023-08-12T00:48:39;20.00;;;11.63;;
46897;SDS011;32646;50.958;6.258;2023-08-12T00:51:06;22.83;;;11.90;;
46897;SDS011;32646;50.958;6.258;2023-08-12T00:53:33;19.67;;;11.40;;
46897;SDS011;32646;50.958;6.258;2023-08-12T00:56:00;22.27;;;11.93;;
46897;SDS011;32646;50.958;6.258;2023-08-12T00:58:27;20.90;;;11.38;;
46897;SDS011;32646;50.958;6.258;2023-08-12T01:00:54;18.90;;;11.15;;
46897;SDS011;32646;50.958;6.258;2023-08-12T01:03:20;22.42;;;11.70;;
46897;SDS011;32646;50.958;6.258;2023-08-12T01:05:48;19.73;;;10.38;;
46897;SDS011;32646;50.958;6.258;2023-08-12T01:08:14;18.15;;;10.63;;
46897;SDS011;32646;50.958;6.258;2023-08-12T01:10:44;19.17;;;12.05;;
46897;SDS011;32646;50.958;6.258;2023-08-12T01:13:24;20.55;;;12.60;;
46897;SDS011;32646;50.958;6.258;2023-08-12T01:15:56;21.67;;;12.32;;
46897;SDS011;32646;50.958;6.258;2023-08-12T01:18:27;21.88;;;11.52;;
46897;SDS011;32646;50.958;6.258;2023-08-12T01:20:54;18.77;;;10.38;;
46897;SDS011;32646;50.958;6.258;2023-08-12T01:23:21;21.27;;;11.35;;
46897;SDS011;32646;50.958;6.258;2023-08-12T01:25:48;22.02;;;12.45;;
46897;SDS011;32646;50.958;6.258;2023-08-12T01:28:15;19.75;;;12.10;;
46897;SDS011;32646;50.958;6.258;2023-08-12T01:30:43;22.33;;;11.80;;
46897;SDS011;32646;50.958;6.258;2023-08-12T01:33:27;21.65;;;11.68;;
46897;SDS011;32646;50.958;6.258;2023-08-12T01:36:09;20.60;;;10.75;;
46897;SDS011;32646;50.958;6.258;2023-08-12T01:38:40;21.63;;;11.98;;
46897;SDS011;32646;50.958;6.258;2023-08-12T01:41:09;23.58;;;13.10;;
46897;SDS011;32646;50.958;6.258;2023-08-12T01:43:37;22.80;;;13.13;;
46897;SDS011;32646;50.958;6.258;2023-08-12T01:46:05;22.40;;;11.95;;
46897;SDS011;32646;50.958;6.258;2023-08-12T01:48:32;22.95;;;12.07;;
46897;SDS011;32646;50.958;6.258;2023-08-12T01:50:59;24.23;;;13.30;;
46897;SDS011;32646;50.958;6.258;2023-08-12T01:53:26;21.95;;;11.70;;
46897;SDS011;32646;50.958;6.258;2023-08-12T01:55:52;22.17;;;12.63;;
46897;SDS011;32646;50.958;6.258;2023-08-12T01:58:19;22.95;;;11.85;;
46897;SDS011;32646;50.958;6.258;2023-08-12T02:00:46;20.83;;;12.68;;
46897;SDS011;32646;50.958;6.258;2023-08-12T02:03:13;22.65;;;11.65;;
46897;SDS011;32646;50.958;6.258;2023-08-12T02:05:39;19.40;;;10.63;;
46897;SDS011;32646;50.958;6.258;2023-08-12T02:08:06;19.42;;;11.30;;
46897;SDS011;32646;50.958;6.258;2023-08-12T02:10:33;19.00;;;11.27;;
46897;SDS011;32646;50.958;6.258;2023-08-12T02:13:00;18.10;;;11.18;;
46897;SDS011;32646;50.958;6.258;2023-08-12T02:15:26;25.15;;;11.35;;
46897;SDS011;32646;50.958;6.258;2023-08-12T02:17:53;17.73;;;11.23;;
46897;SDS011;32646;50.958;6.258;2023-08-12T02:20:20;19.77;;;11.15;;
46897;SDS011;32646;50.958;6.258;2023-08-12T02:22:46;20.02;;;11.23;;
46897;SDS011;32646;50.958;6.258;2023-08-12T02:25:13;21.33;;;11.43;;
46897;SDS011;32646;50.958;6.258;2023-08-12T02:27:40;21.23;;;11.88;;
46897;SDS011;32646;50.958;6.258;2023-08-12T02:30:06;20.67;;;12.15;;
46897;SDS011;32646;50.958;6.258;2023-08-12T02:32:33;21.48;;;12.18;;
46897;SDS011;32646;50.958;6.258;2023-08-12T02:35:00;19.17;;;11.73;;
46897;SDS011;32646;50.958;6.258;2023-08-12T02:37:27;21.85;;;11.20;;
46897;SDS011;32646;50.958;6.258;2023-08-12T02:39:53;18.83;;;11.00;;
46897;SDS011;32646;50.958;6.258;2023-08-12T02:42:20;21.13;;;11.38;;
46897;SDS011;32646;50.958;6.258;2023-08-12T02:44:46;21.50;;;12.20;;
46897;SDS011;32646;50.958;6.258;2023-08-12T02:47:13;26.30;;;11.60;;
46897;SDS011;32646;50.958;6.258;2023-08-12T02:49:40;26.88;;;11.40;;
46897;SDS011;32646;50.958;6.258;2023-08-12T02:52:07;20.08;;;11.38;;
46897;SDS011;32646;50.958;6.258;2023-08-12T02:54:33;24.08;;;12.63;;
46897;SDS011;32646;50.958;6.258;2023-08-12T02:57:00;23.85;;;12.32;;
46897;SDS011;32646;50.958;6.258;2023-08-12T02:59:27;21.92;;;11.82;;
46897;SDS011;32646;50.958;6.258;2023-08-12T03:01:53;20.75;;;11.02;;
46897;SDS011;32646;50.958;6.258;2023-08-12T03:04:20;20.75;;;11.52;;
46897;SDS011;32646;50.958;6.258;2023-08-12T03:06:47;20.73;;;11.40;;
46897;SDS011;32646;50.958;6.258;2023-08-12T03:09:13;22.23;;;12.68;;
46897;SDS011;32646;50.958;6.258;2023-08-12T03:11:42;18.02;;;10.70;;
46897;SDS011;32646;50.958;6.258;2023-08-12T03:14:09;18.75;;;10.75;;
46897;SDS011;32646;50.958;6.258;2023-08-12T03:16:36;21.33;;;11.20;;
46897;SDS011;32646;50.958;6.258;2023-08-12T03:19:03;18.20;;;10.88;;
46897;SDS011;32646;50.958;6.258;2023-08-12T03:21:29;18.55;;;11.05;;
46897;SDS011;32646;50.958;6.258;2023-08-12T03:23:56;20.58;;;11.15;;
46897;SDS011;32646;50.958;6.258;2023-08-12T03:26:22;22.48;;;11.52;;
46897;SDS011;32646;50.958;6.258;2023-08-12T03:28:49;20.55;;;10.77;;
46897;SDS011;32646;50.958;6.258;2023-08-12T03:31:16;22.02;;;11.88;;
46897;SDS011;32646;50.958;6.258;2023-08-12T03:33:42;24.48;;;11.73;;
46897;SDS011;32646;50.958;6.258;2023-08-12T03:36:09;18.02;;;10.98;;
46897;SDS011;32646;50.958;6.258;2023-08-12T03:38:36;21.33;;;10.60;;
46897;SDS011;32646;50.958;6.258;2023-08-12T03:41:03;25.55;;;10.40;;
46897;SDS011;32646;50.958;6.258;2023-08-12T03:43:29;16.00;;;9.80;;
46897;SDS011;32646;50.958;6.258;2023-08-12T03:45:56;17.02;;;10.45;;
46897;SDS011;32646;50.958;6.258;2023-08-12T03:48:23;16.10;;;10.68;;
46897;SDS011;32646;50.958;6.258;2023-08-12T03:50:49;18.30;;;10.00;;
46897;SDS011;32646;50.958;6.258;2023-08-12T03:53:16;16.85;;;10.20;;
46897;SDS011;32646;50.958;6.258;2023-08-12T03:55:43;21.88;;;10.40;;
46897;SDS011;32646;50.958;6.258;2023-08-12T03:58:09;17.08;;;10.20;;
46897;SDS011;32646;50.958;6.258;2023-08-12T04:00:40;17.05;;;10.43;;
46897;SDS011;32646;50.958;6.258;2023-08-12T04:03:07;16.05;;;9.10;;
46897;SDS011;32646;50.958;6.258;2023-08-12T04:05:33;16.05;;;9.27;;
46897;SDS011;32646;50.958;6.258;2023-08-12T04:08:00;16.95;;;9.90;;
46897;SDS011;32646;50.958;6.258;2023-08-12T04:10:27;17.00;;;8.73;;
46897;SDS011;32646;50.958;6.258;2023-08-12T04:12:53;14.88;;;9.57;;
46897;SDS011;32646;50.958;6.258;2023-08-12T04:15:20;16.45;;;8.38;;
46897;SDS011;32646;50.958;6.258;2023-08-12T04:17:46;19.83;;;8.93;;
46897;SDS011;32646;50.958;6.258;2023-08-12T04:20:13;14.15;;;8.73;;
46897;SDS011;32646;50.958;6.258;2023-08-12T04:22:40;20.90;;;9.70;;
46897;SDS011;32646;50.958;6.258;2023-08-12T04:25:07;15.02;;;8.40;;
46897;SDS011;32646;50.958;6.258;2023-08-12T04:27:33;17.75;;;7.82;;
46897;SDS011;32646;50.958;6.258;2023-08-12T04:30:00;16.35;;;8.20;;
46897;SDS011;32646;50.958;6.258;2023-08-12T04:32:27;16.23;;;8.65;;
46897;SDS011;32646;50.958;6.258;2023-08-12T04:34:53;14.85;;;7.85;;
46897;SDS011;32646;50.958;6.258;2023-08-12T04:37:20;15.98;;;7.97;;
46897;SDS011;32646;50.958;6.258;2023-08-12T04:39:46;15.10;;;8.68;;
46897;SDS011;32646;50.958;6.258;2023-08-12T04:42:13;18.52;;;8.68;;
46897;SDS011;32646;50.958;6.258;2023-08-12T04:44:40;14.27;;;7.88;;
46897;SDS011;32646;50.958;6.258;2023-08-12T04:47:06;13.95;;;8.65;;
46897;SDS011;32646;50.958;6.258;2023-08-12T04:49:33;12.48;;;7.95;;
46897;SDS011;32646;50.958;6.258;2023-08-12T04:52:00;15.60;;;7.85;;
46897;SDS011;32646;50.958;6.258;2023-08-12T04:54:26;14.60;;;7.90;;
46897;SDS011;32646;50.958;6.258;2023-08-12T04:56:53;14.77;;;8.25;;
46897;SDS011;32646;50.958;6.258;2023-08-12T04:59:20;14.07;;;7.97;;
46897;SDS011;32646;50.958;6.258;2023-08-12T05:01:46;12.30;;;7.13;;
46897;SDS011;32646;50.958;6.258;2023-08-12T05:04:29;15.25;;;8.55;;
46897;SDS011;32646;50.958;6.258;2023-08-12T05:06:55;14.60;;;8.27;;
46897;SDS011;32646;50.958;6.258;2023-08-12T05:09:22;12.13;;;7.60;;
46897;SDS011;32646;50.958;6.258;2023-08-12T05:11:48;14.20;;;7.93;;
46897;SDS011;32646;50.958;6.258;2023-08-12T05:14:15;14.98;;;7.72;;
46897;SDS011;32646;50.958;6.258;2023-08-12T05:16:42;12.43;;;7.38;;
46897;SDS011;32646;50.958;6.258;2023-08-12T05:19:08;13.32;;;7.35;;
46897;SDS011;32646;50.958;6.258;2023-08-12T05:21:35;16.30;;;7.13;;
46897;SDS011;32646;50.958;6.258;2023-08-12T05:24:02;17.23;;;7.93;;
46897;SDS011;32646;50.958;6.258;2023-08-12T05:26:28;11.98;;;7.40;;
46897;SDS011;32646;50.958;6.258;2023-08-12T05:28:55;12.23;;;7.75;;
46897;SDS011;32646;50.958;6.258;2023-08-12T05:31:22;13.98;;;7.30;;
46897;SDS011;32646;50.958;6.258;2023-08-12T05:33:48;14.73;;;6.90;;
46897;SDS011;32646;50.958;6.258;2023-08-12T05:36:15;11.70;;;7.40;;
46897;SDS011;32646;50.958;6.258;2023-08-12T05:38:41;13.57;;;6.70;;
46897;SDS011;32646;50.958;6.258;2023-08-12T05:41:08;13.43;;;6.47;;
46897;SDS011;32646;50.958;6.258;2023-08-12T05:43:35;15.25;;;7.10;;
46897;SDS011;32646;50.958;6.258;2023-08-12T05:46:01;11.05;;;5.82;;
46897;SDS011;32646;50.958;6.258;2023-08-12T05:48:28;8.93;;;4.97;;
46897;SDS011;32646;50.958;6.258;2023-08-12T05:50:55;7.22;;;4.05;;
46897;SDS011;32646;50.958;6.258;2023-08-12T05:53:21;8.02;;;4.03;;
46897;SDS011;32646;50.958;6.258;2023-08-12T05:55:48;7.43;;;3.97;;
46897;SDS011;32646;50.958;6.258;2023-08-12T05:58:15;9.57;;;4.07;;
46897;SDS011;32646;50.958;6.258;2023-08-12T06:00:41;8.30;;;3.85;;
46897;SDS011;32646;50.958;6.258;2023-08-12T06:03:08;9.38;;;4.07;;
46897;SDS011;32646;50.958;6.258;2023-08-12T06:05:35;7.13;;;3.83;;
46897;SDS011;32646;50.958;6.258;2023-08-12T06:08:02;10.27;;;4.53;;
46897;SDS011;32646;50.958;6.258;2023-08-12T06:10:28;7.97;;;3.95;;
46897;SDS011;32646;50.958;6.258;2023-08-12T06:12:55;6.65;;;3.30;;
46897;SDS011;32646;50.958;6.258;2023-08-12T06:15:22;6.72;;;3.28;;
46897;SDS011;32646;50.958;6.258;2023-08-12T06:17:48;7.15;;;3.33;;
46897;SDS011;32646;50.958;6.258;2023-08-12T06:20:15;5.07;;;2.90;;
46897;SDS011;32646;50.958;6.258;2023-08-12T06:22:42;7.30;;;3.20;;
46897;SDS011;32646;50.958;6.258;2023-08-12T06:25:08;6.15;;;2.90;;
46897;SDS011;32646;50.958;6.258;2023-08-12T06:27:35;5.53;;;3.20;;
46897;SDS011;32646;50.958;6.258;2023-08-12T06:30:02;6.97;;;2.92;;
46897;SDS011;32646;50.958;6.258;2023-08-12T06:32:29;5.72;;;3.38;;
46897;SDS011;32646;50.958;6.258;2023-08-12T06:34:55;6.47;;;3.08;;
46897;SDS011;32646;50.958;6.258;2023-08-12T06:37:22;5.60;;;2.88;;
46897;SDS011;32646;50.958;6.258;2023-08-12T06:39:48;6.05;;;3.13;;
46897;SDS011;32646;50.958;6.258;2023-08-12T06:42:15;5.80;;;2.95;;
46897;SDS011;32646;50.958;6.258;2023-08-12T06:44:42;5.40;;;3.40;;
46897;SDS011;32646;50.958;6.258;2023-08-12T06:47:08;5.45;;;2.70;;
46897;SDS011;32646;50.958;6.258;2023-08-12T06:49:35;6.82;;;3.13;;
46897;SDS011;32646;50.958;6.258;2023-08-12T06:52:02;5.82;;;3.03;;
46897;SDS011;32646;50.958;6.258;2023-08-12T06:54:28;6.60;;;2.70;;
46897;SDS011;32646;50.958;6.258;2023-08-12T06:56:55;6.43;;;2.55;;
46897;SDS011;32646;50.958;6.258;2023-08-12T06:59:22;9.35;;;3.25;;
46897;SDS011;32646;50.958;6.258;2023-08-12T07:01:48;4.75;;;1.90;;
46897;SDS011;32646;50.958;6.258;2023-08-12T07:04:15;5.68;;;2.25;;
46897;SDS011;32646;50.958;6.258;2023-08-12T07:06:42;4.70;;;2.20;;
46897;SDS011;32646;50.958;6.258;2023-08-12T07:09:08;6.50;;;2.30;;
46897;SDS011;32646;50.958;6.258;2023-08-12T07:11:35;4.68;;;2.30;;
46897;SDS011;32646;50.958;6.258;2023-08-12T07:14:01;4.80;;;2.22;;
46897;SDS011;32646;50.958;6.258;2023-08-12T07:16:28;4.72;;;1.88;;
46897;SDS011;32646;50.958;6.258;2023-08-12T07:18:55;5.05;;;1.80;;
46897;SDS011;32646;50.958;6.258;2023-08-12T07:21:21;4.63;;;1.95;;
46897;SDS011;32646;50.958;6.258;2023-08-12T07:23:48;6.97;;;2.22;;
46897;SDS011;32646;50.958;6.258;2023-08-12T07:26:29;4.90;;;2.17;;
46897;SDS011;32646;50.958;6.258;2023-08-12T07:28:56;5.25;;;2.13;;
46897;SDS011;32646;50.958;6.258;2023-08-12T07:31:23;4.10;;;2.20;;
46897;SDS011;32646;50.958;6.258;2023-08-12T07:33:50;4.03;;;1.73;;
46897;SDS011;32646;50.958;6.258;2023-08-12T07:36:16;6.60;;;2.03;;
46897;SDS011;32646;50.958;6.258;2023-08-12T07:38:43;4.03;;;1.60;;
46897;SDS011;32646;50.958;6.258;2023-08-12T07:41:09;4.25;;;2.05;;
46897;SDS011;32646;50.958;6.258;2023-08-12T07:43:36;4.68;;;1.58;;
46897;SDS011;32646;50.958;6.258;2023-08-12T07:46:03;3.85;;;1.60;;
46897;SDS011;32646;50.958;6.258;2023-08-12T07:48:35;3.38;;;1.50;;
46897;SDS011;32646;50.958;6.258;2023-08-12T07:51:02;2.80;;;1.20;;
46897;SDS011;32646;50.958;6.258;2023-08-12T07:53:28;3.45;;;1.55;;
46897;SDS011;32646;50.958;6.258;2023-08-12T07:55:55;3.20;;;1.23;;
46897;SDS011;32646;50.958;6.258;2023-08-12T07:58:22;3.78;;;1.40;;
46897;SDS011;32646;50.958;6.258;2023-08-12T08:00:51;4.38;;;1.40;;
46897;SDS011;32646;50.958;6.258;2023-08-12T08:03:19;4.07;;;1.40;;
46897;SDS011;32646;50.958;6.258;2023-08-12T08:05:45;4.43;;;1.50;;
46897;SDS011;32646;50.958;6.258;2023-08-12T08:08:12;4.32;;;1.60;;
46897;SDS011;32646;50.958;6.258;2023-08-12T08:10:39;3.65;;;1.15;;
46897;SDS011;32646;50.958;6.258;2023-08-12T08:13:06;4.32;;;1.42;;
46897;SDS011;32646;50.958;6.258;2023-08-12T08:15:33;4.85;;;1.50;;
46897;SDS011;32646;50.958;6.258;2023-08-12T08:17:59;3.97;;;1.60;;
46897;SDS011;32646;50.958;6.258;2023-08-12T08:20:27;3.00;;;1.30;;
46897;SDS011;32646;50.958;6.258;2023-08-12T08:22:54;4.20;;;1.30;;
46897;SDS011;32646;50.958;6.258;2023-08-12T08:25:21;3.67;;;1.50;;
46897;SDS011;32646;50.958;6.258;2023-08-12T08:27:48;4.15;;;1.70;;
46897;SDS011;32646;50.958;6.258;2023-08-12T08:30:15;3.75;;;1.67;;
46897;SDS011;32646;50.958;6.258;2023-08-12T08:32:41;3.53;;;1.35;;
46897;SDS011;32646;50.958;6.258;2023-08-12T08:35:08;3.78;;;1.70;;
46897;SDS011;32646;50.958;6.258;2023-08-12T08:37:35;3.55;;;1.55;;
46897;SDS011;32646;50.958;6.258;2023-08-12T08:40:01;3.70;;;1.83;;
46897;SDS011;32646;50.958;6.258;2023-08-12T08:42:28;3.33;;;1.50;;
46897;SDS011;32646;50.958;6.258;2023-08-12T08:44:55;3.40;;;1.40;;
46897;SDS011;32646;50.958;6.258;2023-08-12T08:47:26;3.40;;;1.23;;
46897;SDS011;32646;50.958;6.258;2023-08-12T08:49:54;3.42;;;1.30;;
46897;SDS011;32646;50.958;6.258;2023-08-12T08:52:22;2.95;;;1.30;;
46897;SDS011;32646;50.958;6.258;2023-08-12T08:54:49;3.30;;;1.05;;
46897;SDS011;32646;50.958;6.258;2023-08-12T08:57:18;2.67;;;1.23;;
46897;SDS011;32646;50.958;6.258;2023-08-12T08:59:54;2.08;;;0.93;;
46897;SDS011;32646;50.958;6.258;2023-08-12T09:02:24;2.80;;;0.93;;
46897;SDS011;32646;50.958;6.258;2023-08-12T09:04:51;3.35;;;1.02;;
46897;SDS011;32646;50.958;6.258;2023-08-12T09:07:18;2.92;;;1.08;;
46897;SDS011;32646;50.958;6.258;2023-08-12T09:09:47;3.92;;;1.20;;
46897;SDS011;32646;50.958;6.258;2023-08-12T09:12:17;2.80;;;1.00;;
46897;SDS011;32646;50.958;6.258;2023-08-12T09:14:45;3.42;;;1.20;;
46897;SDS011;32646;50.958;6.258;2023-08-12T09:17:12;2.20;;;0.80;;
46897;SDS011;32646;50.958;6.258;2023-08-12T09:19:40;1.65;;;0.80;;
46897;SDS011;32646;50.958;6.258;2023-08-12T09:22:07;3.20;;;0.80;;
46897;SDS011;32646;50.958;6.258;2023-08-12T09:24:34;3.35;;;1.20;;
46897;SDS011;32646;50.958;6.258;2023-08-12T09:27:01;2.42;;;0.85;;
46897;SDS011;32646;50.958;6.258;2023-08-12T09:29:31;2.38;;;0.65;;
46897;SDS011;32646;50.958;6.258;2023-08-12T09:32:06;2.33;;;0.75;;
46897;SDS011;32646;50.958;6.258;2023-08-12T09:34:33;2.40;;;0.80;;
46897;SDS011;32646;50.958;6.258;2023-08-12T09:36:59;1.98;;;0.70;;
46897;SDS011;32646;50.958;6.258;2023-08-12T09:39:26;2.47;;;0.85;;
46897;SDS011;32646;50.958;6.258;2023-08-12T09:41:55;2.22;;;0.80;;
46897;SDS011;32646;50.958;6.258;2023-08-12T09:44:22;1.92;;;0.73;;
46897;SDS011;32646;50.958;6.258;2023-08-12T09:46:48;2.40;;;0.80;;
46897;SDS011;32646;50.958;6.258;2023-08-12T09:49:22;2.60;;;0.90;;
46897;SDS011;32646;50.958;6.258;2023-08-12T09:51:50;2.30;;;0.77;;
46897;SDS011;32646;50.958;6.258;2023-08-12T09:54:17;2.80;;;0.80;;
46897;SDS011;32646;50.958;6.258;2023-08-12T09:56:46;3.28;;;1.20;;
46897;SDS011;32646;50.958;6.258;2023-08-12T09:59:18;3.58;;;1.00;;
46897;SDS011;32646;50.958;6.258;2023-08-12T10:01:46;2.25;;;0.80;;
46897;SDS011;32646;50.958;6.258;2023-08-12T10:04:14;1.48;;;0.65;;
46897;SDS011;32646;50.958;6.258;2023-08-12T10:06:44;2.50;;;1.10;;
46897;SDS011;32646;50.958;6.258;2023-08-12T10:09:11;2.15;;;0.88;;
46897;SDS011;32646;50.958;6.258;2023-08-12T10:11:38;2.60;;;0.80;;
46897;SDS011;32646;50.958;6.258;2023-08-12T10:14:05;2.60;;;1.00;;
46897;SDS011;32646;50.958;6.258;2023-08-12T10:16:32;2.90;;;0.85;;
46897;SDS011;32646;50.958;6.258;2023-08-12T10:18:59;2.05;;;0.77;;
46897;SDS011;32646;50.958;6.258;2023-08-12T10:21:27;2.97;;;0.98;;
46897;SDS011;32646;50.958;6.258;2023-08-12T10:23:54;2.28;;;0.95;;
46897;SDS011;32646;50.958;6.258;2023-08-12T10:26:24;4.25;;;1.10;;
46897;SDS011;32646;50.958;6.258;2023-08-12T10:28:51;2.47;;;1.00;;
46897;SDS011;32646;50.958;6.258;2023-08-12T10:31:18;3.20;;;1.00;;
46897;SDS011;32646;50.958;6.258;2023-08-12T10:33:45;2.95;;;1.20;;
46897;SDS011;32646;50.958;6.258;2023-08-12T10:36:12;3.00;;;1.10;;
46897;SDS011;32646;50.958;6.258;2023-08-12T10:38:40;2.80;;;1.05;;
46897;SDS011;32646;50.958;6.258;2023-08-12T10:41:22;3.05;;;1.10;;
46897;SDS011;32646;50.958;6.258;2023-08-12T10:46:36;3.97;;;1.10;;
46897;SDS011;32646;50.958;6.258;2023-08-12T10:49:04;2.83;;;1.20;;
46897;SDS011;32646;50.958;6.258;2023-08-12T10:51:39;2.90;;;1.20;;
46897;SDS011;32646;50.958;6.258;2023-08-12T10:54:13;2.70;;;1.10;;
46897;SDS011;32646;50.958;6.258;2023-08-12T11:05:01;2.20;;;0.70;;
46897;SDS011;32646;50.958;6.258;2023-08-12T11:07:42;1.67;;;0.63;;
46897;SDS011;32646;50.958;6.258;2023-08-12T11:10:15;2.22;;;0.80;;
46897;SDS011;32646;50.958;6.258;2023-08-12T11:15:20;1.88;;;0.70;;
46897;SDS011;32646;50.958;6.258;2023-08-12T11:17:58;1.63;;;0.75;;
46897;SDS011;32646;50.958;6.258;2023-08-12T11:20:25;2.50;;;0.90;;
46897;SDS011;32646;50.958;6.258;2023-08-12T11:25:21;3.65;;;0.80;;
46897;SDS011;32646;50.958;6.258;2023-08-12T11:27:47;2.88;;;0.93;;
46897;SDS011;32646;50.958;6.258;2023-08-12T11:30:15;2.58;;;0.90;;
46897;SDS011;32646;50.958;6.258;2023-08-12T11:32:50;3.35;;;1.10;;
46897;SDS011;32646;50.958;6.258;2023-08-12T11:35:18;2.58;;;0.90;;
46897;SDS011;32646;50.958;6.258;2023-08-12T11:37:47;2.55;;;0.88;;
46897;SDS011;32646;50.958;6.258;2023-08-12T11:40:21;2.78;;;1.10;;
46897;SDS011;32646;50.958;6.258;2023-08-12T11:42:49;3.03;;;0.90;;
46897;SDS011;32646;50.958;6.258;2023-08-12T11:45:23;2.97;;;0.93;;
46897;SDS011;32646;50.958;6.258;2023-08-12T11:47:51;3.17;;;0.80;;
46897;SDS011;32646;50.958;6.258;2023-08-12T11:50:25;3.45;;;1.25;;
46897;SDS011;32646;50.958;6.258;2023-08-12T11:52:53;2.53;;;0.93;;
46897;SDS011;32646;50.958;6.258;2023-08-12T11:55:21;1.52;;;0.70;;
46897;SDS011;32646;50.958;6.258;2023-08-12T11:57:49;2.25;;;0.90;;
46897;SDS011;32646;50.958;6.258;2023-08-12T12:00:16;2.78;;;0.93;;
46897;SDS011;32646;50.958;6.258;2023-08-12T12:02:50;2.17;;;0.70;;
46897;SDS011;32646;50.958;6.258;2023-08-12T12:05:20;3.67;;;0.80;;
46897;SDS011;32646;50.958;6.258;2023-08-12T12:07:50;1.85;;;0.68;;
46897;SDS011;32646;50.958;6.258;2023-08-12T12:10:40;2.03;;;0.75;;
46897;SDS011;32646;50.958;6.258;2023-08-12T12:15:37;1.80;;;0.70;;
46897;SDS011;32646;50.958;6.258;2023-08-12T12:18:13;2.33;;;0.82;;
46897;SDS011;32646;50.958;6.258;2023-08-12T12:20:58;2.85;;;0.90;;
46897;SDS011;32646;50.958;6.258;2023-08-12T12:23:28;2.08;;;0.60;;
46897;SDS011;32646;50.958;6.258;2023-08-12T12:25:57;2.65;;;0.80;;
46897;SDS011;32646;50.958;6.258;2023-08-12T12:28:25;1.58;;;0.65;;
46897;SDS011;32646;50.958;6.258;2023-08-12T12:30:52;1.83;;;0.75;;
46897;SDS011;32646;50.958;6.258;2023-08-12T12:33:19;3.28;;;0.80;;
46897;SDS011;32646;50.958;6.258;2023-08-12T12:35:46;2.85;;;1.10;;
46897;SDS011;32646;50.958;6.258;2023-08-12T12:38:24;2.42;;;0.80;;
46897;SDS011;32646;50.958;6.258;2023-08-12T12:40:50;2.20;;;0.70;;
46897;SDS011;32646;50.958;6.258;2023-08-12T12:43:19;2.13;;;0.65;;
46897;SDS011;32646;50.958;6.258;2023-08-12T12:45:45;3.10;;;1.00;;
46897;SDS011;32646;50.958;6.258;2023-08-12T12:48:12;2.75;;;0.95;;
46897;SDS011;32646;50.958;6.258;2023-08-12T12:50:39;2.72;;;1.13;;
46897;SDS011;32646;50.958;6.258;2023-08-12T12:53:05;3.78;;;1.45;;
46897;SDS011;32646;50.958;6.258;2023-08-12T12:55:32;3.08;;;1.30;;
46897;SDS011;32646;50.958;6.258;2023-08-12T12:57:59;3.58;;;1.08;;
46897;SDS011;32646;50.958;6.258;2023-08-12T13:00:25;2.65;;;1.10;;
46897;SDS011;32646;50.958;6.258;2023-08-12T13:02:52;3.50;;;0.93;;
46897;SDS011;32646;50.958;6.258;2023-08-12T13:05:19;2.80;;;0.90;;
46897;SDS011;32646;50.958;6.258;2023-08-12T13:07:45;2.60;;;0.63;;
46897;SDS011;32646;50.958;6.258;2023-08-12T13:10:12;1.70;;;0.47;;
46897;SDS011;32646;50.958;6.258;2023-08-12T13:12:38;2.83;;;0.80;;
46897;SDS011;32646;50.958;6.258;2023-08-12T13:15:05;2.17;;;0.60;;
46897;SDS011;32646;50.958;6.258;2023-08-12T13:17:32;3.92;;;0.80;;
46897;SDS011;32646;50.958;6.258;2023-08-12T13:19:59;2.05;;;0.50;;
46897;SDS011;32646;50.958;6.258;2023-08-12T13:22:25;1.77;;;0.63;;
46897;SDS011;32646;50.958;6.258;2023-08-12T13:24:52;2.05;;;0.60;;
46897;SDS011;32646;50.958;6.258;2023-08-12T13:27:19;1.83;;;0.68;;
46897;SDS011;32646;50.958;6.258;2023-08-12T13:29:46;2.85;;;0.80;;
46897;SDS011;32646;50.958;6.258;2023-08-12T13:32:12;2.60;;;0.95;;
46897;SDS011;32646;50.958;6.258;2023-08-12T13:34:39;2.63;;;0.85;;
46897;SDS011;32646;50.958;6.258;2023-08-12T13:37:08;2.55;;;0.68;;
46897;SDS011;32646;50.958;6.258;2023-08-12T13:39:34;1.67;;;0.50;;
46897;SDS011;32646;50.958;6.258;2023-08-12T13:42:02;2.40;;;0.60;;
46897;SDS011;32646;50.958;6.258;2023-08-12T13:44:28;1.65;;;0.55;;
46897;SDS011;32646;50.958;6.258;2023-08-12T13:46:55;3.28;;;0.90;;
46897;SDS011;32646;50.958;6.258;2023-08-12T13:49:22;2.10;;;0.73;;
46897;SDS011;32646;50.958;6.258;2023-08-12T13:51:48;1.58;;;0.68;;
46897;SDS011;32646;50.958;6.258;2023-08-12T13:54:15;2.30;;;1.00;;
46897;SDS011;32646;50.958;6.258;2023-08-12T13:56:42;2.22;;;0.88;;
46897;SDS011;32646;50.958;6.258;2023-08-12T13:59:08;3.28;;;1.15;;
46897;SDS011;32646;50.958;6.258;2023-08-12T14:01:35;1.92;;;0.60;;
46897;SDS011;32646;50.958;6.258;2023-08-12T14:04:01;2.42;;;0.80;;
46897;SDS011;32646;50.958;6.258;2023-08-12T14:06:28;2.58;;;0.70;;
46897;SDS011;32646;50.958;6.258;2023-08-12T14:08:55;1.80;;;0.50;;
46897;SDS011;32646;50.958;6.258;2023-08-12T14:11:21;3.13;;;1.10;;
46897;SDS011;32646;50.958;6.258;2023-08-12T14:13:48;2.25;;;0.70;;
46897;SDS011;32646;50.958;6.258;2023-08-12T14:16:15;2.20;;;0.60;;
46897;SDS011;32646;50.958;6.258;2023-08-12T14:18:41;1.52;;;0.57;;
46897;SDS011;32646;50.958;6.258;2023-08-12T14:21:08;2.58;;;0.82;;
46897;SDS011;32646;50.958;6.258;2023-08-12T14:23:34;1.90;;;0.70;;
46897;SDS011;32646;50.958;6.258;2023-08-12T14:26:01;3.72;;;0.80;;
46897;SDS011;32646;50.958;6.258;2023-08-12T14:28:28;2.08;;;0.60;;
46897;SDS011;32646;50.958;6.258;2023-08-12T14:30:54;3.83;;;1.05;;
46897;SDS011;32646;50.958;6.258;2023-08-12T14:33:21;3.00;;;0.70;;
46897;SDS011;32646;50.958;6.258;2023-08-12T14:35:48;3.35;;;0.90;;
46897;SDS011;32646;50.958;6.258;2023-08-12T14:38:14;2.67;;;0.85;;
46897;SDS011;32646;50.958;6.258;2023-08-12T14:40:41;1.70;;;0.68;;
46897;SDS011;32646;50.958;6.258;2023-08-12T14:43:07;2.50;;;0.73;;
46897;SDS011;32646;50.958;6.258;2023-08-12T14:45:34;2.75;;;0.75;;
46897;SDS011;32646;50.958;6.258;2023-08-12T14:48:01;2.53;;;0.82;;
46897;SDS011;32646;50.958;6.258;2023-08-12T14:50:27;2.38;;;0.65;;
46897;SDS011;32646;50.958;6.258;2023-08-12T14:52:57;2.60;;;0.68;;
46897;SDS011;32646;50.958;6.258;2023-08-12T14:55:23;1.67;;;0.60;;
46897;SDS011;32646;50.958;6.258;2023-08-12T14:57:50;1.80;;;0.70;;
46897;SDS011;32646;50.958;6.258;2023-08-12T15:00:17;3.00;;;0.85;;